createdAt,value
2023-08-07T00:02:16.540Z,99434.63
2023-08-07T00:04:50.353Z,99432.81
2023-08-07T00:07:25.647Z,99424.77
2023-08-07T00:09:58.832Z,99439.13
2023-08-07T00:12:31.820Z,99435.39
2023-08-07T00:15:05.315Z,99438.16
2023-08-07T00:17:38.616Z,99438.19
2023-08-07T00:20:14.059Z,99436.37
2023-08-07T00:22:47.402Z,99424.81
2023-08-07T00:25:21.007Z,99430.27
2023-08-07T00:27:54.837Z,99431.14
2023-08-07T00:30:27.599Z,99440.91
2023-08-07T00:33:00.875Z,99441.48
2023-08-07T00:35:34.258Z,99441.80
2023-08-07T00:38:07.342Z,99441.58
2023-08-07T00:40:44.710Z,99441.12
2023-08-07T00:43:17.734Z,99450.05
2023-08-07T00:45:52.993Z,99452.80
2023-08-07T00:48:26.997Z,99459.84
2023-08-07T00:51:00.416Z,99449.92
2023-08-07T00:53:34.968Z,99451.58
2023-08-07T00:56:08.788Z,99467.50
2023-08-07T00:58:42.565Z,99466.75
2023-08-07T01:01:17.066Z,99467.59
2023-08-07T01:03:50.217Z,99464.90
2023-08-07T01:06:23.617Z,99477.33
2023-08-07T01:08:56.887Z,99476.58
2023-08-07T01:11:37.185Z,99474.45
2023-08-07T01:14:20.302Z,99473.40
2023-08-07T01:16:55.013Z,99472.91
2023-08-07T01:19:31.910Z,99472.41
2023-08-07T01:22:12.313Z,99476.45
2023-08-07T01:24:48.156Z,99481.09
2023-08-07T01:27:39.218Z,99486.50
2023-08-07T01:30:20.561Z,99493.23
2023-08-07T01:32:57.882Z,99491.39
2023-08-07T01:35:32.640Z,99496.28
2023-08-07T01:38:06.381Z,99502.22
2023-08-07T01:40:41.910Z,99507.34
2023-08-07T01:43:15.019Z,99512.48
2023-08-07T01:45:48.196Z,99509.52
2023-08-07T01:48:22.397Z,99511.16
2023-08-07T01:50:57.308Z,99509.30
2023-08-07T01:53:30.810Z,99507.41
2023-08-07T01:56:04.315Z,99503.66
2023-08-07T01:58:37.578Z,99506.88
2023-08-07T02:01:11.258Z,99517.40
2023-08-07T02:03:44.489Z,99518.73
2023-08-07T02:06:17.965Z,99516.05
2023-08-07T02:08:52.171Z,99523.06
2023-08-07T02:11:26.182Z,99528.99
2023-08-07T02:14:00.802Z,99531.44
2023-08-07T02:16:34.389Z,99526.86
2023-08-07T02:19:07.818Z,99523.09
2023-08-07T02:21:42.076Z,99523.64
2023-08-07T02:24:15.960Z,99527.13
2023-08-07T02:26:49.842Z,99529.57
2023-08-07T02:29:23.227Z,99524.73
2023-08-07T02:31:57.265Z,99527.67
2023-08-07T02:34:30.431Z,99536.28
2023-08-07T02:37:05.338Z,99537.65
2023-08-07T02:39:39.896Z,99538.19
2023-08-07T02:42:13.026Z,99544.11
2023-08-07T02:44:46.669Z,99541.67
2023-08-07T02:47:20.712Z,99540.59
2023-08-07T02:49:54.119Z,99550.27
2023-08-07T02:52:27.204Z,99551.64
2023-08-07T02:55:00.864Z,99549.48
2023-08-07T02:57:34.124Z,99560.49
2023-08-07T03:00:11.230Z,99566.41
2023-08-07T03:02:44.616Z,99566.94
2023-08-07T03:05:18.692Z,99566.40
2023-08-07T03:07:51.783Z,99573.13
2023-08-07T03:10:26.745Z,99586.28
2023-08-07T03:13:00.585Z,99581.19
2023-08-07T03:15:33.220Z,99586.53
2023-08-07T03:18:07.352Z,99578.72
2023-08-07T03:20:42.134Z,99587.31
2023-08-07T03:23:15.992Z,99574.40
2023-08-07T03:25:49.306Z,99591.05
2023-08-07T03:28:23.071Z,99596.17
2023-08-07T03:30:56.315Z,99592.94
2023-08-07T03:33:30.392Z,99593.19
2023-08-07T03:36:04.007Z,99598.02
2023-08-07T03:38:37.807Z,99600.16
2023-08-07T03:41:11.816Z,99605.81
2023-08-07T03:43:46.536Z,99597.21
2023-08-07T03:46:19.629Z,99614.41
2023-08-07T03:48:53.012Z,99618.95
2023-08-07T03:51:26.458Z,99613.86
2023-08-07T03:54:00.838Z,99615.47
2023-08-07T03:56:37.865Z,99613.86
2023-08-07T03:59:11.719Z,99612.24
2023-08-07T04:01:44.972Z,99609.28
2023-08-07T04:04:18.162Z,99615.47
2023-08-07T04:06:51.502Z,99616.55
2023-08-07T04:09:25.501Z,99618.41
2023-08-07T04:11:59.567Z,99620.30
2023-08-07T04:14:32.757Z,99623.78
2023-08-07T04:17:06.793Z,99626.47
2023-08-07T04:19:40.013Z,99621.92
2023-08-07T04:22:14.317Z,99631.31
2023-08-07T04:24:47.655Z,99628.38
2023-08-07T04:27:21.450Z,99623.27
2023-08-07T04:29:54.547Z,99628.95
2023-08-07T04:32:28.120Z,99618.22
2023-08-07T04:35:02.409Z,99628.98
2023-08-07T04:37:35.592Z,99627.37
2023-08-07T04:40:12.756Z,99637.90
2023-08-07T04:42:46.015Z,99634.97
2023-08-07T04:45:20.098Z,99640.36
2023-08-07T04:47:53.672Z,99643.61
2023-08-07T04:50:27.201Z,99651.41
2023-08-07T04:53:01.055Z,99658.16
2023-08-07T04:55:34.742Z,99657.88
2023-08-07T04:58:07.906Z,99652.51
2023-08-07T05:00:40.809Z,99664.64
2023-08-07T05:03:14.275Z,99666.26
2023-08-07T05:05:48.072Z,99664.64
2023-08-07T05:08:21.588Z,99670.31
2023-08-07T05:10:55.384Z,99670.86
2023-08-07T05:13:29.316Z,99660.63
2023-08-07T05:16:02.506Z,99665.47
2023-08-07T05:18:35.779Z,99668.44
2023-08-07T05:21:10.325Z,99668.97
2023-08-07T05:23:43.809Z,99668.41
2023-08-07T05:26:19.233Z,99662.76
2023-08-07T05:28:52.041Z,99675.38
2023-08-07T05:31:26.683Z,99661.64
2023-08-07T05:34:02.083Z,99659.17
2023-08-07T05:36:36.194Z,99658.61
2023-08-07T05:39:10.156Z,99663.17
2023-08-07T05:41:43.627Z,99676.87
2023-08-07T05:44:17.094Z,99666.59
2023-08-07T05:46:49.798Z,99680.06
2023-08-07T05:49:25.915Z,99683.00
2023-08-07T05:51:59.944Z,99688.60
2023-08-07T05:54:33.542Z,99696.64
2023-08-07T05:57:08.495Z,99698.48
2023-08-07T05:59:42.751Z,99701.39
2023-08-07T06:02:16.368Z,99706.19
2023-08-07T06:04:50.031Z,99716.39
2023-08-07T06:07:23.595Z,99718.46
2023-08-07T06:09:57.398Z,99716.80
2023-08-07T06:12:31.105Z,99710.80
2023-08-07T06:15:04.410Z,99712.09
2023-08-07T06:17:37.967Z,99715.80
2023-08-07T06:20:15.732Z,99715.98
2023-08-07T06:22:49.084Z,99712.69
2023-08-07T06:25:22.314Z,99711.77
2023-08-07T06:27:56.317Z,99702.46
2023-08-07T06:30:29.412Z,99703.17
2023-08-07T06:33:02.701Z,99700.91
2023-08-07T06:35:43.875Z,99706.46
2023-08-07T06:38:17.445Z,99707.44
2023-08-07T06:40:51.496Z,99709.50
2023-08-07T06:43:24.863Z,99721.01
2023-08-07T06:45:59.502Z,99710.63
2023-08-07T06:48:32.969Z,99728.11
2023-08-07T06:51:06.713Z,99728.79
2023-08-07T06:53:39.718Z,99739.75
2023-08-07T06:56:14.092Z,99741.04
2023-08-07T06:58:47.603Z,99747.69
2023-08-07T07:01:21.009Z,99748.94
2023-08-07T07:03:54.898Z,99754.48
2023-08-07T07:06:28.490Z,99755.42
2023-08-07T07:09:01.779Z,99756.67
2023-08-07T07:11:36.102Z,99759.81
2023-08-07T07:14:09.479Z,99765.66
2023-08-07T07:16:43.476Z,99764.76
2023-08-07T07:19:17.719Z,99768.20
2023-08-07T07:21:51.311Z,99766.45
2023-08-07T07:24:24.288Z,99776.02
2023-08-07T07:26:57.307Z,99776.44
2023-08-07T07:29:30.987Z,99781.45
2023-08-07T07:32:04.200Z,99782.69
2023-08-07T07:34:38.432Z,99780.07
2023-08-07T07:37:12.154Z,99782.09
2023-08-07T07:39:45.490Z,99775.96
2023-08-07T07:42:18.679Z,99772.58
2023-08-07T07:44:52.309Z,99782.44
2023-08-07T07:47:25.574Z,99776.80
2023-08-07T07:50:10.207Z,99786.66
2023-08-07T07:52:44.348Z,99792.38
2023-08-07T07:55:17.940Z,99791.84
2023-08-07T07:57:51.929Z,99794.04
2023-08-07T08:00:28.309Z,99796.44
2023-08-07T08:03:02.276Z,99787.11
2023-08-07T08:05:36.851Z,99783.23
2023-08-07T08:08:10.318Z,99786.70
2023-08-07T08:10:43.442Z,99798.59
2023-08-07T08:13:16.924Z,99789.88
2023-08-07T08:15:50.290Z,99796.85
2023-08-07T08:18:23.899Z,99801.39
2023-08-07T08:20:58.428Z,99798.09
2023-08-07T08:23:31.642Z,99809.67
2023-08-07T08:26:06.480Z,99816.30
2023-08-07T08:28:40.341Z,99805.14
2023-08-07T08:31:13.413Z,99802.91
2023-08-07T08:33:46.866Z,99805.81
2023-08-07T08:36:20.285Z,99801.69
2023-08-07T08:38:54.200Z,99798.30
2023-08-07T08:41:28.644Z,99799.92
2023-08-07T08:44:02.256Z,99787.91
2023-08-07T08:46:37.277Z,99793.52
2023-08-07T08:49:12.286Z,99796.38
2023-08-07T08:51:46.169Z,99791.88
2023-08-07T08:54:19.554Z,99804.05
2023-08-07T08:56:53.340Z,99802.59
2023-08-07T08:59:27.161Z,99817.15
2023-08-07T09:02:00.764Z,99810.86
2023-08-07T09:04:35.048Z,99801.05
2023-08-07T09:07:08.740Z,99803.72
2023-08-07T09:09:43.223Z,99805.14
2023-08-07T09:12:23.067Z,99810.41
2023-08-07T09:14:59.901Z,99807.66
2023-08-07T09:17:34.230Z,99801.84
2023-08-07T09:20:12.446Z,99795.64
2023-08-07T09:22:46.361Z,99803.45
2023-08-07T09:25:32.324Z,99802.59
2023-08-07T09:28:08.641Z,99799.81
2023-08-07T09:30:45.542Z,99803.73
2023-08-07T09:33:26.552Z,99808.16
2023-08-07T09:36:04.172Z,99822.67
2023-08-07T09:38:37.496Z,99826.48
2023-08-07T09:41:10.846Z,99823.53
2023-08-07T09:43:44.249Z,99842.16
2023-08-07T09:46:20.134Z,99836.58
2023-08-07T09:48:53.485Z,99829.77
2023-08-07T09:51:27.056Z,99839.84
2023-08-07T09:54:02.329Z,99834.52
2023-08-07T09:56:37.308Z,99830.28
2023-08-07T09:59:11.452Z,99824.73
2023-08-07T10:01:45.756Z,99834.10
2023-08-07T10:04:19.703Z,99825.98
2023-08-07T10:06:53.900Z,99832.05
2023-08-07T10:09:29.196Z,99829.55
2023-08-07T10:12:04.439Z,99835.59
2023-08-07T10:14:37.683Z,99834.13
2023-08-07T10:17:12.233Z,99836.28
2023-08-07T10:19:46.125Z,99831.88
2023-08-07T10:22:21.030Z,99820.91
2023-08-07T10:24:55.870Z,99824.44
2023-08-07T10:27:31.755Z,99821.83
2023-08-07T10:30:09.334Z,99824.66
2023-08-07T10:32:43.979Z,99823.29
2023-08-07T10:35:27.551Z,99821.22
2023-08-07T10:38:10.570Z,99821.44
2023-08-07T10:41:04.108Z,99820.75
2023-08-07T10:43:41.021Z,99831.02
2023-08-07T10:46:15.747Z,99824.84
2023-08-07T10:48:58.386Z,99822.68
2023-08-07T10:51:34.884Z,99842.32
2023-08-07T10:54:08.385Z,99828.62
2023-08-07T10:56:42.665Z,99820.84
2023-08-07T10:59:16.478Z,99821.41
2023-08-07T11:01:56.855Z,99828.38
2023-08-07T11:04:31.115Z,99824.97
2023-08-07T11:07:05.798Z,99815.23
2023-08-07T11:09:39.439Z,99822.31
2023-08-07T11:12:13.820Z,99820.48
2023-08-07T11:14:47.141Z,99807.67
2023-08-07T11:17:21.372Z,99809.83
2023-08-07T11:19:55.735Z,99814.62
2023-08-07T11:22:29.331Z,99815.85
2023-08-07T11:25:03.058Z,99817.56
2023-08-07T11:27:36.235Z,99808.97
2023-08-07T11:30:15.413Z,99792.17
2023-08-07T11:32:49.221Z,99813.75
2023-08-07T11:35:22.886Z,99801.13
2023-08-07T11:37:56.573Z,99808.85
2023-08-07T11:40:30.161Z,99808.63
2023-08-07T11:43:04.127Z,99823.34
2023-08-07T11:45:37.507Z,99803.95
2023-08-07T11:48:12.665Z,99805.73
2023-08-07T11:50:47.603Z,99801.23
2023-08-07T11:53:20.860Z,99806.46
2023-08-07T11:55:58.350Z,99804.59
2023-08-07T11:58:36.057Z,99797.25
2023-08-07T12:01:12.396Z,99810.98
2023-08-07T12:03:53.416Z,99798.30
2023-08-07T12:06:27.967Z,99787.31
2023-08-07T12:09:02.036Z,99804.67
2023-08-07T12:11:35.441Z,99798.03
2023-08-07T12:14:08.557Z,99791.38
2023-08-07T12:16:41.750Z,99804.09
2023-08-07T12:19:16.008Z,99802.57
2023-08-07T12:21:49.562Z,99794.77
2023-08-07T12:24:24.049Z,99798.88
2023-08-07T12:26:57.543Z,99800.54
2023-08-07T12:29:31.337Z,99802.67
2023-08-07T12:32:04.802Z,99803.61
2023-08-07T12:35:15.163Z,99805.21
2023-08-07T12:37:32.455Z,99803.27
2023-08-07T12:42:43.688Z,99815.58
2023-08-07T12:45:17.622Z,99801.84
2023-08-07T12:47:51.382Z,99801.91
2023-08-07T12:50:24.566Z,99798.09
2023-08-07T12:52:58.286Z,99804.47
2023-08-07T12:55:32.007Z,99806.41
2023-08-07T12:58:05.921Z,99798.97
2023-08-07T13:00:39.467Z,99798.54
2023-08-07T13:03:13.022Z,99809.97
2023-08-07T13:05:46.453Z,99805.25
2023-08-07T13:08:19.563Z,99793.54
2023-08-07T13:10:55.106Z,99797.28
2023-08-07T13:13:29.254Z,99797.00
2023-08-07T13:16:02.493Z,99799.47
2023-08-07T13:18:35.836Z,99789.25
2023-08-07T13:21:10.026Z,99792.81
2023-08-07T13:23:43.140Z,99805.84
2023-08-07T13:26:17.206Z,99797.16
2023-08-07T13:28:50.150Z,99807.00
2023-08-07T13:31:23.577Z,99804.69
2023-08-07T13:33:56.796Z,99787.89
2023-08-07T13:36:30.291Z,99801.50
2023-08-07T13:39:03.590Z,99798.16
2023-08-07T13:41:37.673Z,99806.41
2023-08-07T13:44:14.324Z,99808.00
2023-08-07T13:46:49.196Z,99812.69
2023-08-07T13:49:23.309Z,99812.34
2023-08-07T13:51:57.588Z,99819.44
2023-08-07T13:54:30.844Z,99821.81
2023-08-07T13:57:04.219Z,99811.97
2023-08-07T13:59:37.716Z,99820.16
2023-08-07T14:02:11.933Z,99826.00
2023-08-07T14:04:46.843Z,99831.06
2023-08-07T14:07:20.239Z,99832.65
2023-08-07T14:09:54.734Z,99831.06
2023-08-07T14:12:28.392Z,99837.27
2023-08-07T14:15:01.979Z,99845.42
2023-08-07T14:17:35.187Z,99843.83
2023-08-07T14:20:12.869Z,99847.73
2023-08-07T14:22:46.195Z,99834.70
2023-08-07T14:25:22.726Z,99848.08
2023-08-07T14:27:56.252Z,99859.52
2023-08-07T14:30:30.387Z,99848.01
2023-08-07T14:33:03.920Z,99854.13
2023-08-07T14:35:37.183Z,99852.46
2023-08-07T14:38:10.541Z,99858.57
2023-08-07T14:40:44.954Z,99847.78
2023-08-07T14:43:18.337Z,99846.45
2023-08-07T14:45:51.765Z,99841.57
2023-08-07T14:48:25.329Z,99838.28
2023-08-07T14:50:59.096Z,99844.92
2023-08-07T14:53:32.536Z,99840.03
2023-08-07T14:56:06.663Z,99837.55
2023-08-07T14:58:40.053Z,99848.43
2023-08-07T15:01:13.093Z,99853.03
2023-08-07T15:03:47.285Z,99840.12
2023-08-07T15:06:20.598Z,99841.16
2023-08-07T15:08:54.955Z,99841.79
2023-08-07T15:11:28.831Z,99847.17
2023-08-07T15:14:05.878Z,99835.30
2023-08-07T15:16:40.214Z,99840.07
2023-08-07T15:19:14.395Z,99835.77
2023-08-07T15:21:47.418Z,99837.41
2023-08-07T15:24:21.396Z,99836.31
2023-08-07T15:26:54.706Z,99839.88
2023-08-07T15:29:27.879Z,99836.14
2023-08-07T15:32:01.599Z,99842.56
2023-08-07T15:34:35.550Z,99842.66
2023-08-07T15:37:09.640Z,99850.66
2023-08-07T15:39:44.515Z,99843.36
2023-08-07T15:42:17.705Z,99846.34
2023-08-07T15:44:51.520Z,99839.95
2023-08-07T15:47:24.720Z,99851.95
2023-08-07T15:49:58.272Z,99862.69
2023-08-07T15:52:31.481Z,99864.75
2023-08-07T15:55:05.143Z,99860.47
2023-08-07T15:57:38.207Z,99859.09
2023-08-07T16:00:16.556Z,99857.39
2023-08-07T16:02:49.928Z,99868.90
2023-08-07T16:05:24.527Z,99875.62
2023-08-07T16:07:57.687Z,99878.45
2023-08-07T16:10:31.309Z,99879.69
2023-08-07T16:13:04.540Z,99884.45
2023-08-07T16:15:38.292Z,99884.95
2023-08-07T16:18:12.004Z,99886.50
2023-08-07T16:20:45.311Z,99894.45
2023-08-07T16:23:19.020Z,99894.05
2023-08-07T16:25:52.564Z,99898.46
2023-08-07T16:28:26.085Z,99886.32
2023-08-07T16:31:00.002Z,99886.34
2023-08-07T16:33:32.933Z,99896.22
2023-08-07T16:36:07.550Z,99891.45
2023-08-07T16:38:40.718Z,99897.77
2023-08-07T16:41:14.026Z,99899.75
2023-08-07T16:43:48.419Z,99896.73
2023-08-07T16:46:21.806Z,99907.06
2023-08-07T16:48:55.198Z,99910.28
2023-08-07T16:51:29.364Z,99910.16
2023-08-07T16:54:03.088Z,99915.77
2023-08-07T16:56:36.245Z,99921.41
2023-08-07T16:59:09.197Z,99920.77
2023-08-07T17:01:42.580Z,99924.50
2023-08-07T17:04:15.990Z,99932.05
2023-08-07T17:06:50.190Z,99930.30
2023-08-07T17:09:24.028Z,99930.79
2023-08-07T17:11:57.320Z,99929.05
2023-08-07T17:14:30.790Z,99930.66
2023-08-07T17:17:04.667Z,99936.61
2023-08-07T17:19:37.742Z,99942.55
2023-08-07T17:22:10.829Z,99948.14
2023-08-07T17:24:44.993Z,99940.12
2023-08-07T17:27:18.477Z,99950.89
2023-08-07T17:29:52.103Z,99946.72
2023-08-07T17:32:25.956Z,99955.36
2023-08-07T17:35:01.678Z,99955.52
2023-08-07T17:37:35.040Z,99956.80
2023-08-07T17:40:10.380Z,99962.10
2023-08-07T17:42:43.876Z,99963.86
2023-08-07T17:45:18.215Z,99966.74
2023-08-07T17:47:51.863Z,99966.08
2023-08-07T17:50:25.392Z,99975.22
2023-08-07T17:52:58.530Z,99980.83
2023-08-07T17:55:32.580Z,99982.55
2023-08-07T17:58:05.563Z,99978.03
2023-08-07T18:00:39.777Z,99987.95
2023-08-07T18:03:15.792Z,99987.80
2023-08-07T18:05:50.018Z,99992.27
2023-08-07T18:08:23.291Z,99992.41
2023-08-07T18:10:56.578Z,99993.05
2023-08-07T18:13:30.547Z,99991.25
2023-08-07T18:16:04.331Z,100005.50
2023-08-07T18:18:37.391Z,100000.98
2023-08-07T18:21:10.394Z,100010.89
2023-08-07T18:23:44.395Z,100011.84
2023-08-07T18:26:17.896Z,100014.70
2023-08-07T18:28:51.023Z,100015.33
2023-08-07T18:31:26.271Z,100009.20
2023-08-07T18:34:00.189Z,100019.92
2023-08-07T18:36:34.820Z,100022.42
2023-08-07T18:39:08.326Z,100030.42
2023-08-07T18:41:42.067Z,100031.83
2023-08-07T18:44:15.237Z,100028.13
2023-08-07T18:46:48.816Z,100023.30
2023-08-07T18:49:22.284Z,100031.30
2023-08-07T18:51:55.799Z,100033.31
2023-08-07T18:54:28.983Z,100033.44
2023-08-07T18:57:05.822Z,100033.56
2023-08-07T18:59:40.077Z,100039.95
2023-08-07T19:02:13.478Z,100040.85
2023-08-07T19:04:46.792Z,100037.46
2023-08-07T19:07:20.873Z,100043.02
2023-08-07T19:09:54.076Z,100040.41
2023-08-07T19:12:27.256Z,100042.92
2023-08-07T19:15:00.457Z,100034.59
2023-08-07T19:17:35.099Z,100024.58
2023-08-07T19:20:10.967Z,100032.56
2023-08-07T19:22:44.523Z,100029.13
2023-08-07T19:25:18.067Z,100034.39
2023-08-07T19:27:51.736Z,100042.16
2023-08-07T19:30:26.223Z,100054.86
2023-08-07T19:32:59.723Z,100058.58
2023-08-07T19:35:35.785Z,100059.59
2023-08-07T19:38:09.299Z,100059.98
2023-08-07T19:40:45.773Z,100061.19
2023-08-07T19:43:19.670Z,100069.44
2023-08-07T19:45:52.926Z,100083.39
2023-08-07T19:48:27.352Z,100085.38
2023-08-07T19:51:01.021Z,100083.27
2023-08-07T19:53:35.044Z,100085.19
2023-08-07T19:56:09.664Z,100080.36
2023-08-07T19:58:42.830Z,100083.08
2023-08-07T20:01:16.230Z,100079.84
2023-08-07T20:03:49.474Z,100073.91
2023-08-07T20:06:23.155Z,100062.53
2023-08-07T20:08:57.313Z,100068.56
2023-08-07T20:11:37.285Z,100069.16
2023-08-07T20:14:10.660Z,100061.61
2023-08-07T20:16:43.622Z,100048.91
2023-08-07T20:19:16.737Z,100055.25
2023-08-07T20:21:51.118Z,100049.59
2023-08-07T20:24:25.061Z,100056.72
2023-08-07T20:26:58.350Z,100060.34
2023-08-07T20:29:31.854Z,100072.90
2023-08-07T20:32:05.550Z,100082.42
2023-08-07T20:34:39.059Z,100090.65
2023-08-07T20:37:13.152Z,100099.38
2023-08-07T20:39:46.463Z,100102.99
2023-08-07T20:42:20.673Z,100107.06
2023-08-07T20:44:54.481Z,100115.00
2023-08-07T20:47:27.709Z,100107.72
2023-08-07T20:50:01.686Z,100121.05
2023-08-07T20:52:35.598Z,100122.73
2023-08-07T20:55:10.464Z,100118.72
2023-08-07T20:57:44.537Z,100120.09
2023-08-07T21:00:20.067Z,100121.50
2023-08-07T21:02:53.281Z,100128.02
2023-08-07T21:05:27.186Z,100133.21
2023-08-07T21:08:01.291Z,100124.05
2023-08-07T21:10:34.584Z,100125.45
2023-08-07T21:13:08.300Z,100132.55
2023-08-07T21:15:43.632Z,100132.03
2023-08-07T21:18:16.618Z,100123.38
2023-08-07T21:20:50.611Z,100129.91
2023-08-07T21:23:23.819Z,100135.91
2023-08-07T21:25:57.808Z,100134.56
2023-08-07T21:28:31.875Z,100144.10
2023-08-07T21:31:06.072Z,100136.55
2023-08-07T21:33:40.920Z,100140.11
2023-08-07T21:36:14.683Z,100144.50
2023-08-07T21:38:47.976Z,100151.59
2023-08-07T21:41:21.300Z,100154.09
2023-08-07T21:43:55.061Z,100154.11
2023-08-07T21:46:28.360Z,100154.16
2023-08-07T21:49:03.042Z,100162.05
2023-08-07T21:51:37.019Z,100169.95
2023-08-07T21:54:10.349Z,100187.06
2023-08-07T21:56:44.830Z,100187.41
2023-08-07T21:59:18.504Z,100207.52
2023-08-07T22:01:51.683Z,100202.18
2023-08-07T22:04:25.833Z,100182.48
2023-08-07T22:06:59.011Z,100181.20
2023-08-07T22:09:32.405Z,100180.95
2023-08-07T22:12:06.515Z,100178.28
2023-08-07T22:14:39.903Z,100175.34
2023-08-07T22:17:13.296Z,100166.41
2023-08-07T22:19:59.048Z,100172.11
2023-08-07T22:22:38.802Z,100190.01
2023-08-07T22:25:13.787Z,100201.66
2023-08-07T22:27:46.937Z,100203.88
2023-08-07T22:30:21.977Z,100207.99
2023-08-07T22:32:55.606Z,100209.66
2023-08-07T22:35:29.179Z,100222.16
2023-08-07T22:38:03.339Z,100222.44
2023-08-07T22:40:36.639Z,100223.02
2023-08-07T22:43:11.676Z,100227.37
2023-08-07T22:45:50.289Z,100229.86
2023-08-07T22:48:23.946Z,100225.52
2023-08-07T22:50:57.342Z,100226.08
2023-08-07T22:53:30.621Z,100230.67
2023-08-07T22:56:04.670Z,100236.38
2023-08-07T22:58:37.538Z,100235.84
2023-08-07T23:01:12.708Z,100241.27
2023-08-07T23:03:46.777Z,100245.59
2023-08-07T23:06:20.175Z,100251.80
2023-08-07T23:08:53.490Z,100266.39
2023-08-07T23:11:27.148Z,100272.05
2023-08-07T23:14:00.461Z,100280.69
2023-08-07T23:16:33.749Z,100270.16
2023-08-07T23:19:06.840Z,100269.88
2023-08-07T23:21:40.537Z,100262.27
2023-08-07T23:24:14.151Z,100254.98
2023-08-07T23:26:47.388Z,100260.09
2023-08-07T23:29:20.726Z,100270.63
2023-08-07T23:31:54.037Z,100272.77
2023-08-07T23:34:27.553Z,100264.11
2023-08-07T23:37:01.322Z,100286.48
2023-08-07T23:39:34.713Z,100288.91
2023-08-07T23:42:08.929Z,100271.88
2023-08-07T23:44:42.729Z,100262.69
2023-08-07T23:47:15.962Z,100254.58
2023-08-07T23:49:49.333Z,100249.99
2023-08-07T23:52:22.505Z,100258.09
2023-08-07T23:54:55.841Z,100249.99
2023-08-07T23:57:29.499Z,100235.68
